createdAt,value
2018-06-08T00:00:44.621Z,5.60
2018-06-08T00:03:17.713Z,8.37
2018-06-08T00:06:02.792Z,6.83
2018-06-08T00:08:40.689Z,6.37
2018-06-08T00:11:19.313Z,8.70
2018-06-08T00:13:50.457Z,7.67
2018-06-08T00:16:25.903Z,5.93
2018-06-08T00:18:57.868Z,5.50
2018-06-08T00:21:30.036Z,5.20
2018-06-08T00:24:09.888Z,4.80
2018-06-08T00:26:53.042Z,4.67
2018-06-08T00:29:26.421Z,4.00
2018-06-08T00:32:06.177Z,4.67
2018-06-08T00:34:38.646Z,4.03
2018-06-08T00:37:18.291Z,4.83
2018-06-08T00:39:49.633Z,4.00
2018-06-08T00:42:32.768Z,4.70
2018-06-08T00:45:11.177Z,4.07
2018-06-08T00:47:53.064Z,3.67
2018-06-08T00:50:26.174Z,3.93
2018-06-08T00:52:59.259Z,4.10
2018-06-08T00:55:33.272Z,3.50
2018-06-08T00:58:09.601Z,3.87
2018-06-08T01:00:47.954Z,3.53
2018-06-08T01:03:18.537Z,3.23
2018-06-08T01:06:01.084Z,2.97
2018-06-08T01:08:34.916Z,3.40
2018-06-08T01:11:13.838Z,3.70
2018-06-08T01:13:49.079Z,3.60
2018-06-08T01:16:20.942Z,3.90
2018-06-08T01:18:54.238Z,4.07
2018-06-08T01:21:26.921Z,4.40
2018-06-08T01:24:02.674Z,3.97
2018-06-08T01:26:42.217Z,3.73
2018-06-08T01:29:14.696Z,4.43
2018-06-08T01:31:46.761Z,5.60
2018-06-08T01:34:18.930Z,7.90
2018-06-08T01:36:53.558Z,9.27
2018-06-08T01:39:25.123Z,6.97
2018-06-08T01:41:58.008Z,7.77
2018-06-08T01:44:38.267Z,5.80
2018-06-08T01:47:09.815Z,6.23
2018-06-08T01:49:44.552Z,5.17
2018-06-08T01:52:20.506Z,5.43
2018-06-08T01:55:02.302Z,5.77
2018-06-08T01:57:40.820Z,5.03
2018-06-08T02:00:14.214Z,4.80
2018-06-08T02:02:51.508Z,5.40
2018-06-08T02:05:23.383Z,4.00
2018-06-08T02:07:58.615Z,3.93
2018-06-08T02:10:39.384Z,3.90
2018-06-08T02:13:11.259Z,3.43
2018-06-08T02:15:53.044Z,3.33
2018-06-08T02:18:27.883Z,2.70
2018-06-08T02:21:06.094Z,2.97
2018-06-08T02:23:45.019Z,3.17
2018-06-08T02:26:27.172Z,2.93
2018-06-08T02:29:03.282Z,2.53
2018-06-08T02:31:44.872Z,2.57
2018-06-08T02:34:24.732Z,2.00
2018-06-08T02:37:03.651Z,2.33
2018-06-08T02:39:45.046Z,2.80
2018-06-08T02:42:19.876Z,2.87
2018-06-08T02:44:54.907Z,2.50
2018-06-08T02:47:31.794Z,2.40
2018-06-08T02:50:07.950Z,1.97
2018-06-08T02:52:41.759Z,1.93
2018-06-08T02:55:14.224Z,1.70
2018-06-08T02:57:47.021Z,1.53
2018-06-08T03:00:23.416Z,1.67
2018-06-08T03:03:00.474Z,1.37
2018-06-08T03:05:41.044Z,1.73
2018-06-08T03:08:24.066Z,1.50
2018-06-08T03:11:03.819Z,1.27
2018-06-08T03:13:42.640Z,1.20
2018-06-08T03:16:14.912Z,1.30
2018-06-08T03:18:51.485Z,1.07
2018-06-08T03:21:30.309Z,1.53
2018-06-08T03:24:02.487Z,1.20
2018-06-08T03:26:39.464Z,1.60
2018-06-08T03:29:18.498Z,1.50
2018-06-08T03:31:53.641Z,1.50
2018-06-08T03:34:29.898Z,1.50
2018-06-08T03:37:03.809Z,1.63
2018-06-08T03:39:46.732Z,1.33
2018-06-08T03:42:27.921Z,1.83
2018-06-08T03:45:03.255Z,1.73
2018-06-08T03:47:44.958Z,1.70
2018-06-08T03:50:18.656Z,1.40
2018-06-08T03:52:51.442Z,1.60
2018-06-08T03:55:28.628Z,1.47
2018-06-08T03:58:07.662Z,2.00
2018-06-08T04:00:39.933Z,1.83
2018-06-08T04:03:13.944Z,1.40
2018-06-08T04:05:45.090Z,1.50
2018-06-08T04:08:22.797Z,1.57
2018-06-08T04:10:59.466Z,1.40
2018-06-08T04:13:40.859Z,1.67
2018-06-08T04:16:12.002Z,1.50
2018-06-08T04:18:45.289Z,1.43
2018-06-08T04:21:23.818Z,1.60
2018-06-08T04:23:56.493Z,1.40
2018-06-08T04:26:28.970Z,1.50
2018-06-08T04:29:01.338Z,1.20
2018-06-08T04:31:36.998Z,1.30
2018-06-08T04:34:22.306Z,1.30
2018-06-08T04:36:58.134Z,1.63
2018-06-08T04:39:30.303Z,1.53
2018-06-08T04:42:13.428Z,1.40
2018-06-08T04:44:54.711Z,1.60
2018-06-08T04:47:34.321Z,1.50
2018-06-08T04:50:14.922Z,1.57
2018-06-08T04:52:49.345Z,1.57
2018-06-08T04:55:26.755Z,1.50
2018-06-08T04:57:59.011Z,1.53
2018-06-08T05:00:31.590Z,1.80
2018-06-08T05:03:06.420Z,1.60
2018-06-08T05:05:46.340Z,2.00
2018-06-08T05:08:33.297Z,1.60
2018-06-08T05:11:20.215Z,1.80
2018-06-08T05:13:52.585Z,2.00
2018-06-08T05:16:31.818Z,2.10
2018-06-08T05:19:10.353Z,1.90
2018-06-08T05:21:46.608Z,2.40
2018-06-08T05:24:21.332Z,2.57
2018-06-08T05:26:59.038Z,2.67
2018-06-08T05:29:36.629Z,2.80
2018-06-08T05:32:08.698Z,2.70
2018-06-08T05:34:40.050Z,3.40
2018-06-08T05:37:12.240Z,3.27
2018-06-08T05:39:47.048Z,3.43
2018-06-08T05:42:25.978Z,3.20
2018-06-08T05:45:02.964Z,3.40
2018-06-08T05:47:47.831Z,4.10
2018-06-08T05:50:28.086Z,3.80
2018-06-08T05:53:03.534Z,4.83
2018-06-08T05:55:44.209Z,4.70
2018-06-08T05:58:16.169Z,4.37
2018-06-08T06:01:03.087Z,4.60
2018-06-08T06:03:40.585Z,4.80
2018-06-08T06:06:11.723Z,4.70
2018-06-08T06:08:45.124Z,5.00
2018-06-08T06:11:22.833Z,4.83
2018-06-08T06:13:57.348Z,5.60
2018-06-08T06:16:33.109Z,4.20
2018-06-08T06:19:04.042Z,4.63
2018-06-08T06:21:35.914Z,4.73
2018-06-08T06:24:07.774Z,4.90
2018-06-08T06:26:44.427Z,4.60
2018-06-08T06:29:27.577Z,4.43
2018-06-08T06:32:01.432Z,3.67
2018-06-08T06:34:43.790Z,4.00
2018-06-08T06:37:19.442Z,4.27
2018-06-08T06:40:00.442Z,3.10
2018-06-08T06:42:41.393Z,3.47
2018-06-08T06:45:23.600Z,3.37
2018-06-08T06:48:04.451Z,3.10
2018-06-08T06:50:38.077Z,3.10
2018-06-08T06:53:17.454Z,3.27
2018-06-08T06:55:55.457Z,3.10
2018-06-08T06:58:30.051Z,3.20
2018-06-08T07:01:11.495Z,3.40
2018-06-08T07:03:49.031Z,2.87
2018-06-08T07:06:27.653Z,3.07
2018-06-08T07:09:10.172Z,3.40
2018-06-08T07:11:46.021Z,3.67
2018-06-08T07:14:39.678Z,3.10
2018-06-08T07:17:13.101Z,4.13
2018-06-08T07:19:46.186Z,3.30
2018-06-08T07:22:22.656Z,3.30
2018-06-08T07:24:57.491Z,3.87
2018-06-08T07:27:35.605Z,3.67
2018-06-08T07:30:08.690Z,3.53
2018-06-08T07:32:44.649Z,3.50
2018-06-08T07:35:22.860Z,4.27
2018-06-08T07:38:04.757Z,4.67
2018-06-08T07:40:43.512Z,4.57
2018-06-08T07:43:16.880Z,5.00
2018-06-08T07:45:48.528Z,3.80
2018-06-08T07:48:26.647Z,3.70
2018-06-08T07:51:05.370Z,4.47
2018-06-08T07:53:38.268Z,4.90
2018-06-08T07:56:20.529Z,4.00
2018-06-08T07:58:59.703Z,3.70
2018-06-08T08:01:34.528Z,3.90
2018-06-08T08:04:19.306Z,3.33
2018-06-08T08:06:55.665Z,3.17
2018-06-08T08:09:34.535Z,3.23
2018-06-08T08:12:07.180Z,3.63
2018-06-08T08:14:59.370Z,3.13
2018-06-08T08:17:33.120Z,2.80
2018-06-08T08:20:06.935Z,2.90
2018-06-08T08:22:41.246Z,2.93
2018-06-08T08:25:19.870Z,2.73
2018-06-08T08:27:52.960Z,2.37
2018-06-08T08:30:25.231Z,2.40
2018-06-08T08:33:02.621Z,2.20
2018-06-08T08:35:38.564Z,2.10
2018-06-08T08:38:23.565Z,1.90
2018-06-08T08:41:08.225Z,2.50
2018-06-08T08:43:40.388Z,2.30
2018-06-08T08:46:20.340Z,2.53
2018-06-08T08:48:57.732Z,3.20
2018-06-08T08:51:38.444Z,2.80
2018-06-08T08:54:14.264Z,3.73
2018-06-08T08:56:50.128Z,3.40
2018-06-08T08:59:29.759Z,3.97
2018-06-08T09:02:01.520Z,4.17
2018-06-08T09:04:36.050Z,3.70
2018-06-08T09:07:14.256Z,3.73
2018-06-08T09:09:52.467Z,3.60
2018-06-08T09:12:25.458Z,2.70
2018-06-08T09:15:40.311Z,3.43
2018-06-08T09:18:18.950Z,3.73
2018-06-08T09:20:50.608Z,3.30
2018-06-08T09:23:26.770Z,2.93
2018-06-08T09:26:05.599Z,2.93
2018-06-08T09:28:37.870Z,3.10
2018-06-08T09:31:11.574Z,2.70
2018-06-08T09:33:52.563Z,2.50
2018-06-08T09:36:31.993Z,2.50
2018-06-08T09:39:14.812Z,3.10
2018-06-08T09:41:57.024Z,3.10
2018-06-08T09:44:40.639Z,2.30
2018-06-08T09:47:16.410Z,2.37
2018-06-08T09:49:55.338Z,2.50
2018-06-08T09:52:32.222Z,2.40
2018-06-08T09:55:03.979Z,2.57
2018-06-08T09:57:38.707Z,2.20
2018-06-08T10:00:11.092Z,2.60
2018-06-08T10:02:43.157Z,2.90
2018-06-08T10:05:21.536Z,2.70
2018-06-08T10:07:59.887Z,2.50
2018-06-08T10:10:36.148Z,2.47
2018-06-08T10:13:16.720Z,2.20
2018-06-08T10:16:00.558Z,2.13
2018-06-08T10:18:34.776Z,2.43
2018-06-08T10:21:10.021Z,2.40
2018-06-08T10:23:49.679Z,2.20
2018-06-08T10:26:24.085Z,2.40
2018-06-08T10:28:56.363Z,2.50
2018-06-08T10:31:28.841Z,2.47
2018-06-08T10:34:03.516Z,2.50
2018-06-08T10:36:41.374Z,2.30
2018-06-08T10:39:13.442Z,2.10
2018-06-08T10:42:00.460Z,2.10
2018-06-08T10:44:33.448Z,2.13
2018-06-08T10:47:07.752Z,1.90
2018-06-08T10:49:39.723Z,2.17
2018-06-08T10:52:15.379Z,2.13
2018-06-08T10:54:52.157Z,2.20
2018-06-08T10:57:37.434Z,2.23
2018-06-08T11:00:10.737Z,2.10
2018-06-08T11:02:45.053Z,2.30
2018-06-08T11:05:21.418Z,2.20
2018-06-08T11:08:01.587Z,2.03
2018-06-08T11:10:39.900Z,2.00
2018-06-08T11:13:12.575Z,1.87
2018-06-08T11:16:08.753Z,2.20
2018-06-08T11:18:53.739Z,2.27
2018-06-08T11:21:33.786Z,2.67
2018-06-08T11:24:06.817Z,2.30
2018-06-08T11:26:44.930Z,2.87
2018-06-08T11:29:26.749Z,2.73
2018-06-08T11:32:06.372Z,2.27
2018-06-08T11:34:45.613Z,2.20
2018-06-08T11:37:20.951Z,2.07
2018-06-08T11:39:53.941Z,1.67
2018-06-08T11:42:31.764Z,1.47
2018-06-08T11:45:12.415Z,1.90
2018-06-08T11:47:54.315Z,1.90
2018-06-08T11:50:31.712Z,1.70
2018-06-08T11:53:15.855Z,1.67
2018-06-08T11:55:54.480Z,1.30
2018-06-08T11:58:28.999Z,1.40
2018-06-08T12:01:12.465Z,1.40
2018-06-08T12:03:53.103Z,1.40
2018-06-08T12:06:25.799Z,1.70
2018-06-08T12:09:04.981Z,1.30
2018-06-08T12:11:44.796Z,1.40
2018-06-08T12:14:43.367Z,1.00
2018-06-08T12:17:18.601Z,1.13
2018-06-08T12:19:56.401Z,1.20
2018-06-08T12:22:30.822Z,1.30
2018-06-08T12:25:03.611Z,1.43
2018-06-08T12:27:43.051Z,1.40
2018-06-08T12:30:20.814Z,1.20
2018-06-08T12:32:57.527Z,1.50
2018-06-08T12:35:34.518Z,1.30
2018-06-08T12:38:12.532Z,1.23
2018-06-08T12:40:49.193Z,1.30
2018-06-08T12:43:30.832Z,1.63
2018-06-08T12:46:09.207Z,1.57
2018-06-08T12:48:40.038Z,2.00
2018-06-08T12:51:20.093Z,1.60
2018-06-08T12:53:59.123Z,1.67
2018-06-08T12:56:33.648Z,1.60
2018-06-08T12:59:05.511Z,1.60
2018-06-08T13:01:42.898Z,1.80
2018-06-08T13:04:15.995Z,1.87
2018-06-08T13:06:48.575Z,1.40
2018-06-08T13:09:20.642Z,1.60
2018-06-08T13:11:57.831Z,1.50
2018-06-08T13:18:02.996Z,1.40
2018-06-08T13:20:34.347Z,1.50
2018-06-08T13:23:12.052Z,1.70
2018-06-08T13:25:44.626Z,1.67
2018-06-08T13:28:27.148Z,2.00
2018-06-08T13:31:07.193Z,1.60
2018-06-08T13:33:43.056Z,1.60
2018-06-08T13:36:14.706Z,1.80
2018-06-08T13:38:49.944Z,1.60
2018-06-08T13:41:27.919Z,1.53
2018-06-08T13:44:00.433Z,1.20
2018-06-08T13:46:37.915Z,1.40
2018-06-08T13:49:10.909Z,1.40
2018-06-08T13:51:45.649Z,1.60
2018-06-08T13:54:23.757Z,1.50
2018-06-08T13:57:02.914Z,1.63
2018-06-08T13:59:43.660Z,1.43
2018-06-08T14:02:25.872Z,1.60
2018-06-08T14:05:05.102Z,1.50
2018-06-08T14:07:46.284Z,1.60
2018-06-08T14:10:28.926Z,1.57
2018-06-08T14:13:11.105Z,1.50
2018-06-08T14:19:02.549Z,1.30
2018-06-08T14:21:35.023Z,1.50
2018-06-08T14:24:16.937Z,2.10
2018-06-08T14:26:48.691Z,2.40
2018-06-08T14:29:25.968Z,2.00
2018-06-08T14:32:04.951Z,2.00
2018-06-08T14:34:44.144Z,2.07
2018-06-08T14:37:22.953Z,1.90
2018-06-08T14:40:02.916Z,2.40
2018-06-08T14:42:34.780Z,3.00
2018-06-08T14:45:13.959Z,2.97
2018-06-08T14:47:48.947Z,3.33
2018-06-08T14:50:23.293Z,2.77
2018-06-08T14:53:02.609Z,2.37
2018-06-08T14:55:34.572Z,2.17
2018-06-08T14:58:06.747Z,2.30
2018-06-08T15:00:46.285Z,2.40
2018-06-08T15:03:23.166Z,1.97
2018-06-08T15:06:00.983Z,2.03
2018-06-08T15:08:35.186Z,2.20
2018-06-08T15:11:15.211Z,1.73
2018-06-08T15:13:49.355Z,1.87
2018-06-08T15:16:59.649Z,1.87
2018-06-08T15:19:42.952Z,1.80
2018-06-08T15:22:25.003Z,1.63
2018-06-08T15:25:04.700Z,1.80
2018-06-08T15:27:37.483Z,1.67
2018-06-08T15:30:15.694Z,1.60
2018-06-08T15:32:48.994Z,1.60
2018-06-08T15:35:29.358Z,1.53
2018-06-08T15:38:02.242Z,1.70
2018-06-08T15:40:39.587Z,1.80
2018-06-08T15:43:20.023Z,2.43
2018-06-08T15:46:01.897Z,2.10
2018-06-08T15:48:35.599Z,2.27
2018-06-08T15:51:07.465Z,2.10
2018-06-08T15:53:42.246Z,2.43
2018-06-08T15:56:13.440Z,2.27
2018-06-08T15:58:45.508Z,2.20
2018-06-08T16:01:16.652Z,2.67
2018-06-08T16:03:49.745Z,2.07
2018-06-08T16:06:23.757Z,2.13
2018-06-08T16:08:55.723Z,2.17
2018-06-08T16:11:37.722Z,2.03
2018-06-08T16:14:13.168Z,2.17
2018-06-08T16:17:04.583Z,2.30
2018-06-08T16:19:36.772Z,2.40
2018-06-08T16:22:10.265Z,2.60
2018-06-08T16:24:43.251Z,2.10
2018-06-08T16:27:20.747Z,2.30
2018-06-08T16:29:53.742Z,2.13
2018-06-08T16:32:32.148Z,2.10
2018-06-08T16:35:04.526Z,2.73
2018-06-08T16:37:42.226Z,2.40
2018-06-08T16:40:16.762Z,2.00
2018-06-08T16:42:54.868Z,2.87
2018-06-08T16:45:26.723Z,25.47
2018-06-08T16:48:01.555Z,9.50
2018-06-08T16:50:36.593Z,3.20
2018-06-08T16:53:21.668Z,2.60
2018-06-08T16:55:56.304Z,1.80
2018-06-08T16:58:28.667Z,2.30
2018-06-08T17:01:07.188Z,2.00
2018-06-08T17:03:44.785Z,2.30
2018-06-08T17:06:16.546Z,2.03
2018-06-08T17:08:49.542Z,2.07
2018-06-08T17:11:26.618Z,2.23
2018-06-08T17:14:00.237Z,2.43
2018-06-08T17:19:50.948Z,2.83
2018-06-08T17:22:35.131Z,2.30
2018-06-08T17:25:11.161Z,2.37
2018-06-08T17:27:44.768Z,3.10
2018-06-08T17:30:17.140Z,2.63
2018-06-08T17:32:48.593Z,2.63
2018-06-08T17:35:22.820Z,2.50
2018-06-08T17:38:10.152Z,2.60
2018-06-08T17:40:43.850Z,2.50
2018-06-08T17:43:16.933Z,8.20
2018-06-08T17:45:48.292Z,6.90
2018-06-08T17:48:21.387Z,7.90
2018-06-08T17:50:53.853Z,11.13
2018-06-08T17:53:26.850Z,7.90
2018-06-08T17:56:05.168Z,4.37
2018-06-08T17:58:40.250Z,3.37
2018-06-08T18:01:23.174Z,2.50
2018-06-08T18:04:03.580Z,2.60
2018-06-08T18:06:40.776Z,7.67
2018-06-08T18:09:13.758Z,5.27
2018-06-08T18:11:47.397Z,3.27
2018-06-08T18:14:45.877Z,2.20
2018-06-08T18:17:36.380Z,1.80
2018-06-08T18:20:08.516Z,1.80
2018-06-08T18:22:43.861Z,2.23
2018-06-08T18:25:21.991Z,2.30
2018-06-08T18:27:53.207Z,2.37
2018-06-08T18:30:24.876Z,2.33
2018-06-08T18:33:05.207Z,2.10
2018-06-08T18:35:52.872Z,2.20
2018-06-08T18:38:34.164Z,2.07
2018-06-08T18:41:15.217Z,2.00
2018-06-08T18:43:54.981Z,2.07
2018-06-08T18:46:29.200Z,2.10
2018-06-08T18:49:01.580Z,1.90
2018-06-08T18:51:37.224Z,2.07
2018-06-08T18:54:14.926Z,1.77
2018-06-08T18:56:53.342Z,1.90
2018-06-08T18:59:36.674Z,1.90
2018-06-08T19:02:16.936Z,1.57
2018-06-08T19:04:57.499Z,1.80
2018-06-08T19:07:28.954Z,2.33
2018-06-08T19:10:05.430Z,2.53
2018-06-08T19:12:44.966Z,2.20
2018-06-08T19:15:47.957Z,2.10
2018-06-08T19:18:20.443Z,2.03
2018-06-08T19:21:03.366Z,2.17
2018-06-08T19:23:41.884Z,2.13
2018-06-08T19:26:13.741Z,1.97
2018-06-08T19:28:55.947Z,1.83
2018-06-08T19:31:29.958Z,1.70
2018-06-08T19:34:20.271Z,2.03
2018-06-08T19:36:54.680Z,2.20
2018-06-08T19:39:35.308Z,1.83
2018-06-08T19:42:11.101Z,1.80
2018-06-08T19:44:51.351Z,1.67
2018-06-08T19:47:28.853Z,1.70
2018-06-08T19:50:04.508Z,1.97
2018-06-08T19:52:44.970Z,1.70
2018-06-08T19:55:16.730Z,1.80
2018-06-08T19:57:56.069Z,1.80
2018-06-08T20:00:30.900Z,1.77
2018-06-08T20:03:02.763Z,1.87
2018-06-08T20:05:38.013Z,1.97
2018-06-08T20:08:13.839Z,1.90
2018-06-08T20:10:59.037Z,2.10
2018-06-08T20:13:32.948Z,2.10
2018-06-08T20:19:22.958Z,2.10
2018-06-08T20:22:00.556Z,1.83
2018-06-08T20:24:39.081Z,1.87
2018-06-08T20:30:55.205Z,1.80
2018-06-08T20:33:32.899Z,1.80
2018-06-08T20:36:10.503Z,2.00
2018-06-08T20:38:42.057Z,1.87
2018-06-08T20:41:21.344Z,1.97
2018-06-08T20:43:56.938Z,1.83
2018-06-08T20:46:29.825Z,1.93
2018-06-08T20:49:04.044Z,2.10
2018-06-08T20:51:46.050Z,1.80
2018-06-08T20:54:22.310Z,2.00
2018-06-08T20:57:11.362Z,1.83
2018-06-08T20:59:44.578Z,2.10
2018-06-08T21:02:28.536Z,1.90
2018-06-08T21:05:03.040Z,1.73
2018-06-08T21:07:35.735Z,1.83
2018-06-08T21:10:10.452Z,1.90
2018-06-08T21:12:51.416Z,2.37
2018-06-08T21:18:46.356Z,2.50
2018-06-08T21:21:29.398Z,2.10
2018-06-08T21:24:02.575Z,2.37
2018-06-08T21:26:41.417Z,1.83
2018-06-08T21:29:14.082Z,1.97
2018-06-08T21:31:51.584Z,2.20
2018-06-08T21:34:26.109Z,2.27
2018-06-08T21:37:08.206Z,2.27
2018-06-08T21:39:52.357Z,2.17
2018-06-08T21:42:31.080Z,2.60
2018-06-08T21:45:06.423Z,2.53
2018-06-08T21:47:38.083Z,2.60
2018-06-08T21:50:11.625Z,2.40
2018-06-08T21:52:42.832Z,2.23
2018-06-08T21:55:15.820Z,2.40
2018-06-08T21:57:48.091Z,2.50
2018-06-08T22:00:29.171Z,2.40
2018-06-08T22:03:08.203Z,2.80
2018-06-08T22:05:47.134Z,2.53
2018-06-08T22:08:21.441Z,2.50
2018-06-08T22:11:02.438Z,2.33
2018-06-08T22:13:35.509Z,2.47
2018-06-08T22:16:15.446Z,2.40
2018-06-08T22:18:53.886Z,2.43
2018-06-08T22:21:27.804Z,2.53
2018-06-08T22:23:58.841Z,2.10
2018-06-08T22:26:40.439Z,2.80
2018-06-08T22:29:27.150Z,2.40
2018-06-08T22:32:04.229Z,2.57
2018-06-08T22:34:41.621Z,2.60
2018-06-08T22:37:23.834Z,2.70
2018-06-08T22:39:57.531Z,2.83
2018-06-08T22:42:33.184Z,2.87
2018-06-08T22:45:06.074Z,2.40
2018-06-08T23:47:21.004Z,3.70
2018-06-08T23:49:59.547Z,3.60
2018-06-08T23:52:32.196Z,3.40
2018-06-08T23:55:05.487Z,3.13
2018-06-08T23:57:54.661Z,3.83
